createdAt,value
2023-01-12T00:00:00.317Z,10.50
2023-01-12T00:02:28.660Z,10.50
2023-01-12T00:04:56.997Z,10.50
2023-01-12T00:07:25.017Z,10.50
2023-01-12T00:09:53.065Z,10.50
2023-01-12T00:12:21.223Z,10.50
2023-01-12T00:14:50.619Z,10.50
2023-01-12T00:17:19.677Z,10.40
2023-01-12T00:19:47.787Z,10.50
2023-01-12T00:22:22.817Z,10.50
2023-01-12T00:24:58.028Z,10.60
2023-01-12T00:27:30.627Z,10.50
2023-01-12T00:30:17.494Z,10.60
2023-01-12T00:32:55.529Z,10.60
2023-01-12T00:35:28.539Z,10.70
2023-01-12T00:37:56.791Z,10.70
2023-01-12T00:40:25.089Z,10.70
2023-01-12T00:43:10.699Z,10.80
2023-01-12T00:45:40.523Z,10.80
2023-01-12T00:48:12.798Z,10.80
2023-01-12T00:50:40.958Z,10.80
2023-01-12T00:53:09.143Z,10.80
2023-01-12T00:55:37.625Z,10.70
2023-01-12T00:58:05.937Z,10.80
2023-01-12T01:00:34.351Z,10.80
2023-01-12T01:03:04.248Z,10.80
2023-01-12T01:05:32.594Z,10.80
2023-01-12T01:08:05.105Z,10.80
2023-01-12T01:10:33.813Z,10.90
2023-01-12T01:13:02.005Z,10.80
2023-01-12T01:15:33.297Z,10.90
2023-01-12T01:18:26.043Z,10.90
2023-01-12T01:20:59.349Z,10.90
2023-01-12T01:23:29.832Z,10.90
2023-01-12T01:26:04.401Z,11.10
2023-01-12T01:28:32.961Z,10.90
2023-01-12T01:31:05.384Z,10.70
2023-01-12T01:33:34.063Z,10.90
2023-01-12T01:36:04.082Z,10.90
2023-01-12T01:38:32.239Z,10.80
2023-01-12T01:41:00.790Z,10.70
2023-01-12T01:43:30.967Z,10.80
2023-01-12T01:46:04.416Z,10.80
2023-01-12T01:48:35.416Z,10.80
2023-01-12T01:51:10.083Z,10.80
2023-01-12T01:53:41.168Z,10.90
2023-01-12T01:56:12.689Z,10.70
2023-01-12T01:58:44.850Z,10.70
2023-01-12T02:01:13.446Z,10.60
2023-01-12T02:03:42.288Z,10.70
2023-01-12T02:06:12.041Z,10.70
2023-01-12T02:08:47.233Z,10.70
2023-01-12T02:11:30.597Z,10.70
2023-01-12T02:14:16.451Z,10.80
2023-01-12T02:16:59.614Z,10.70
2023-01-12T02:19:44.009Z,10.70
2023-01-12T02:22:39.746Z,10.80
2023-01-12T02:25:39.633Z,10.80
2023-01-12T02:28:27.769Z,10.80
2023-01-12T02:31:23.058Z,10.80
2023-01-12T02:34:02.293Z,10.80
2023-01-12T02:36:37.864Z,10.90
2023-01-12T02:39:12.154Z,10.90
2023-01-12T02:42:06.328Z,10.80
2023-01-12T02:44:39.410Z,10.90
2023-01-12T02:47:15.395Z,10.80
2023-01-12T02:49:50.493Z,10.80
2023-01-12T02:52:22.827Z,10.90
2023-01-12T02:54:52.706Z,10.70
2023-01-12T02:57:24.001Z,10.80
2023-01-12T02:59:53.594Z,10.90
2023-01-12T03:02:25.943Z,10.80
2023-01-12T03:04:54.328Z,10.80
2023-01-12T03:07:47.062Z,10.80
2023-01-12T03:10:42.252Z,10.80
2023-01-12T03:13:15.954Z,10.80
2023-01-12T03:15:48.488Z,10.80
2023-01-12T03:18:21.321Z,10.80
2023-01-12T03:20:54.708Z,10.70
2023-01-12T03:23:31.965Z,10.80
2023-01-12T03:26:03.635Z,10.80
2023-01-12T03:28:35.764Z,10.70
2023-01-12T03:31:19.013Z,10.70
2023-01-12T03:33:48.913Z,10.70
2023-01-12T03:36:22.630Z,10.60
2023-01-12T03:39:00.722Z,10.60
2023-01-12T03:41:36.691Z,10.50
2023-01-12T03:44:12.919Z,10.50
2023-01-12T03:46:52.720Z,10.50
2023-01-12T03:49:28.817Z,10.50
2023-01-12T03:51:59.032Z,10.40
2023-01-12T03:54:32.273Z,10.40
2023-01-12T03:57:02.874Z,10.40
2023-01-12T03:59:31.692Z,10.40
2023-01-12T04:02:02.679Z,10.40
2023-01-12T04:04:41.793Z,10.40
2023-01-12T04:07:10.653Z,10.40
2023-01-12T04:09:39.071Z,10.40
2023-01-12T04:12:14.103Z,10.30
2023-01-12T04:14:46.829Z,10.30
2023-01-12T04:17:50.181Z,10.40
2023-01-12T04:20:20.491Z,10.30
2023-01-12T04:22:51.825Z,10.40
2023-01-12T04:25:24.296Z,10.50
2023-01-12T04:27:53.575Z,10.30
2023-01-12T04:30:27.299Z,10.30
2023-01-12T04:32:56.499Z,10.30
2023-01-12T04:35:27.929Z,10.30
2023-01-12T04:38:00.816Z,10.30
2023-01-12T04:40:30.140Z,10.50
2023-01-12T04:43:12.643Z,10.30
2023-01-12T04:45:44.109Z,10.30
2023-01-12T04:48:17.277Z,10.30
2023-01-12T04:50:47.314Z,10.30
2023-01-12T04:53:18.789Z,10.50
2023-01-12T04:55:48.081Z,10.40
2023-01-12T04:58:17.096Z,10.40
2023-01-12T05:01:01.436Z,10.50
2023-01-12T05:03:32.417Z,10.40
2023-01-12T05:06:08.980Z,10.40
2023-01-12T05:08:54.782Z,10.50
2023-01-12T05:11:29.430Z,10.40
2023-01-12T05:14:00.369Z,10.50
2023-01-12T05:16:32.181Z,10.50
2023-01-12T05:19:00.477Z,10.60
2023-01-12T05:21:45.393Z,10.60
2023-01-12T05:24:13.926Z,10.60
2023-01-12T05:26:44.840Z,10.70
2023-01-12T05:29:13.880Z,10.80
2023-01-12T05:31:48.874Z,10.80
2023-01-12T05:38:16.772Z,10.90
2023-01-12T05:51:10.385Z,11.10
2023-01-12T05:53:40.085Z,11.20
2023-01-12T05:56:10.463Z,11.20
2023-01-12T05:58:41.126Z,11.20
2023-01-12T06:01:10.647Z,11.20
2023-01-12T06:03:39.555Z,11.20
2023-01-12T06:06:09.755Z,11.30
2023-01-12T06:08:39.409Z,11.40
2023-01-12T06:11:29.383Z,11.30
2023-01-12T06:14:00.115Z,11.50
2023-01-12T06:16:28.899Z,11.50
2023-01-12T06:18:57.365Z,11.50
2023-01-12T06:21:26.010Z,11.60
2023-01-12T06:23:55.660Z,11.60
2023-01-12T06:26:23.705Z,11.50
2023-01-12T06:28:53.114Z,11.60
2023-01-12T06:31:21.345Z,11.60
2023-01-12T06:33:49.600Z,11.60
2023-01-12T06:36:17.801Z,11.70
2023-01-12T06:38:47.096Z,11.70
2023-01-12T06:41:30.580Z,11.80
2023-01-12T06:43:59.273Z,11.90
2023-01-12T06:46:28.769Z,11.80
2023-01-12T06:49:00.297Z,11.90
2023-01-12T06:51:28.497Z,11.80
2023-01-12T06:53:56.642Z,11.80
2023-01-12T06:56:26.043Z,11.90
2023-01-12T06:58:54.043Z,11.90
2023-01-12T07:01:22.173Z,11.90
2023-01-12T07:03:50.677Z,12.00
2023-01-12T07:06:18.844Z,12.10
2023-01-12T07:08:48.874Z,12.00
2023-01-12T07:11:16.969Z,12.00
2023-01-12T07:13:49.454Z,12.00
2023-01-12T07:16:17.746Z,12.00
2023-01-12T07:18:48.217Z,12.00
2023-01-12T07:21:16.985Z,12.10
2023-01-12T07:23:45.824Z,12.10
2023-01-12T07:26:14.181Z,12.10
2023-01-12T07:28:42.896Z,12.10
2023-01-12T07:31:12.629Z,12.10
2023-01-12T07:33:40.815Z,12.10
2023-01-12T07:36:09.272Z,12.10
2023-01-12T07:38:38.169Z,12.10
2023-01-12T07:41:26.820Z,12.20
2023-01-12T07:43:54.943Z,12.20
2023-01-12T07:46:24.753Z,12.10
2023-01-12T07:48:52.789Z,12.20
2023-01-12T07:51:20.817Z,12.10
2023-01-12T07:53:51.966Z,12.20
2023-01-12T07:56:20.283Z,12.10
2023-01-12T07:58:49.658Z,12.20
2023-01-12T08:01:17.675Z,12.20
2023-01-12T08:03:47.489Z,12.20
2023-01-12T08:06:18.468Z,12.30
2023-01-12T08:08:46.534Z,12.30
2023-01-12T08:11:14.877Z,12.30
2023-01-12T08:13:42.868Z,12.30
2023-01-12T08:16:18.041Z,12.40
2023-01-12T08:18:53.299Z,12.40
2023-01-12T08:21:24.121Z,12.40
2023-01-12T08:23:59.953Z,12.40
2023-01-12T08:26:33.951Z,12.50
2023-01-12T08:29:09.761Z,12.40
2023-01-12T08:31:42.403Z,12.40
2023-01-12T08:34:12.124Z,12.30
2023-01-12T08:36:44.391Z,12.30
2023-01-12T08:39:14.791Z,12.30
2023-01-12T08:41:45.307Z,12.30
2023-01-12T08:44:13.531Z,12.30
2023-01-12T08:46:48.716Z,12.30
2023-01-12T08:49:20.815Z,12.30
2023-01-12T08:51:55.596Z,12.40
2023-01-12T08:54:25.415Z,12.50
2023-01-12T08:56:54.804Z,12.40
2023-01-12T08:59:23.029Z,12.40
2023-01-12T09:01:51.141Z,12.50
2023-01-12T09:04:23.208Z,12.40
2023-01-12T09:06:51.363Z,12.40
2023-01-12T09:09:23.110Z,12.50
2023-01-12T09:11:51.477Z,12.50
2023-01-12T09:14:21.930Z,12.40
2023-01-12T09:16:50.265Z,12.50
2023-01-12T09:19:18.984Z,12.50
2023-01-12T09:21:48.618Z,12.50
2023-01-12T09:24:16.813Z,12.50
2023-01-12T09:26:47.041Z,12.50
2023-01-12T09:29:16.124Z,12.60
2023-01-12T09:31:46.205Z,12.60
2023-01-12T09:34:14.490Z,12.50
2023-01-12T09:36:44.873Z,12.40
2023-01-12T09:39:32.769Z,12.40
2023-01-12T09:42:32.966Z,12.40
2023-01-12T09:45:18.703Z,12.40
2023-01-12T09:47:56.396Z,12.30
2023-01-12T09:50:29.163Z,12.30
2023-01-12T09:53:01.756Z,12.20
2023-01-12T09:55:41.343Z,12.30
2023-01-12T09:58:27.212Z,12.30
2023-01-12T10:00:58.435Z,12.30
2023-01-12T10:03:31.857Z,12.30
2023-01-12T10:06:14.261Z,12.30
2023-01-12T10:08:46.678Z,12.20
2023-01-12T10:11:20.982Z,12.20
2023-01-12T10:14:21.333Z,12.50
2023-01-12T10:17:01.610Z,12.40
2023-01-12T10:19:38.090Z,12.50
2023-01-12T10:22:37.032Z,12.40
2023-01-12T10:25:32.136Z,12.30
2023-01-12T10:28:07.336Z,12.40
2023-01-12T10:30:38.054Z,12.40
2023-01-12T10:33:15.120Z,12.50
2023-01-12T10:35:51.444Z,12.50
2023-01-12T10:38:25.472Z,12.50
2023-01-12T10:41:13.363Z,12.50
2023-01-12T10:43:47.261Z,12.50
2023-01-12T10:46:17.218Z,12.60
2023-01-12T10:48:47.703Z,12.60
2023-01-12T10:51:38.417Z,12.60
2023-01-12T10:54:12.723Z,12.40
2023-01-12T10:56:44.770Z,12.60
2023-01-12T10:59:21.895Z,12.50
2023-01-12T11:01:53.541Z,12.40
2023-01-12T11:04:23.236Z,12.60
2023-01-12T11:07:11.266Z,12.50
2023-01-12T11:09:43.470Z,12.50
2023-01-12T11:12:29.713Z,12.50
2023-01-12T11:15:05.055Z,12.60
2023-01-12T11:17:48.834Z,12.50
2023-01-12T11:20:22.299Z,12.50
2023-01-12T11:22:57.957Z,12.50
2023-01-12T11:25:29.058Z,12.50
2023-01-12T11:28:01.881Z,12.50
2023-01-12T11:30:37.752Z,12.50
2023-01-12T11:33:13.568Z,12.50
2023-01-12T11:35:50.051Z,12.50
2023-01-12T11:38:25.307Z,12.50
2023-01-12T11:40:56.692Z,12.50
2023-01-12T11:43:50.987Z,12.50
2023-01-12T11:46:27.958Z,12.50
2023-01-12T11:49:11.812Z,12.60
2023-01-12T11:51:40.653Z,12.60
2023-01-12T11:54:13.539Z,12.60
2023-01-12T11:57:03.920Z,12.50
2023-01-12T11:59:41.850Z,12.50
2023-01-12T12:02:33.429Z,12.60
2023-01-12T12:05:12.626Z,12.60
2023-01-12T12:07:55.205Z,12.50
2023-01-12T12:10:31.002Z,12.50
2023-01-12T12:13:27.953Z,12.60
2023-01-12T12:16:07.163Z,12.50
2023-01-12T12:18:50.227Z,12.60
2023-01-12T12:21:39.319Z,12.60
2023-01-12T12:24:21.345Z,12.40
2023-01-12T12:26:59.045Z,12.30
2023-01-12T12:29:46.312Z,12.30
2023-01-12T12:32:27.957Z,12.30
2023-01-12T12:35:25.748Z,12.20
2023-01-12T12:38:13.060Z,12.20
2023-01-12T12:41:10.591Z,12.20
2023-01-12T12:43:59.168Z,12.10
2023-01-12T12:46:36.992Z,12.20
2023-01-12T12:49:09.659Z,12.10
2023-01-12T12:51:41.637Z,12.20
2023-01-12T12:54:17.189Z,12.20
2023-01-12T12:56:46.867Z,12.10
2023-01-12T12:59:54.245Z,12.20
2023-01-12T13:02:40.965Z,12.20
2023-01-12T13:05:13.131Z,12.20
2023-01-12T13:07:52.434Z,12.20
2023-01-12T13:10:27.979Z,12.10
2023-01-12T13:13:05.059Z,12.20
2023-01-12T13:15:37.123Z,12.20
2023-01-12T13:18:07.080Z,12.40
2023-01-12T13:20:52.469Z,12.20
2023-01-12T13:23:47.903Z,12.20
2023-01-12T13:26:44.075Z,12.20
2023-01-12T13:29:44.226Z,12.20
2023-01-12T13:32:45.878Z,12.20
2023-01-12T13:35:54.398Z,12.20
2023-01-12T13:38:43.912Z,12.20
2023-01-12T13:41:39.245Z,12.10
2023-01-12T13:44:09.919Z,12.20
2023-01-12T13:46:43.711Z,12.20
2023-01-12T13:49:27.849Z,12.20
2023-01-12T13:52:01.030Z,12.20
2023-01-12T13:54:30.048Z,12.20
2023-01-12T13:57:02.863Z,12.40
2023-01-12T13:59:31.072Z,12.20
2023-01-12T14:01:59.836Z,12.20
2023-01-12T14:05:00.867Z,12.40
2023-01-12T14:07:47.347Z,12.30
2023-01-12T14:10:25.441Z,12.30
2023-01-12T14:13:21.640Z,12.30
2023-01-12T14:16:07.254Z,12.30
2023-01-12T14:18:44.558Z,12.30
2023-01-12T14:21:23.952Z,12.10
2023-01-12T14:23:52.424Z,12.30
2023-01-12T14:26:31.771Z,12.30
2023-01-12T14:29:01.444Z,12.30
2023-01-12T14:31:35.680Z,12.30
2023-01-12T14:34:06.138Z,12.20
2023-01-12T14:36:38.578Z,12.20
2023-01-12T14:39:11.675Z,12.20
2023-01-12T14:41:57.349Z,12.20
2023-01-12T14:44:45.086Z,12.20
2023-01-12T14:47:24.850Z,12.30
2023-01-12T14:49:52.863Z,12.20
2023-01-12T14:52:27.567Z,12.30
2023-01-12T14:54:55.601Z,12.40
2023-01-12T14:57:30.930Z,12.30
2023-01-12T15:00:02.485Z,12.40
2023-01-12T15:02:34.139Z,12.20
2023-01-12T15:05:05.685Z,12.20
2023-01-12T15:07:36.949Z,12.20
2023-01-12T15:10:27.728Z,12.20
2023-01-12T15:12:57.114Z,12.20
2023-01-12T15:15:48.698Z,12.10
2023-01-12T15:18:37.543Z,12.20
2023-01-12T15:21:26.503Z,12.20
2023-01-12T15:24:12.193Z,12.20
2023-01-12T15:26:40.613Z,12.20
2023-01-12T15:29:09.920Z,12.10
2023-01-12T15:31:40.401Z,12.20
2023-01-12T15:34:10.713Z,12.20
2023-01-12T15:36:38.957Z,12.10
2023-01-12T15:39:07.220Z,12.20
2023-01-12T15:41:52.962Z,12.30
2023-01-12T15:44:22.650Z,12.10
2023-01-12T15:46:52.642Z,12.10
2023-01-12T15:49:21.648Z,12.10
2023-01-12T15:51:52.157Z,12.10
2023-01-12T15:54:21.703Z,12.10
2023-01-12T15:56:50.207Z,12.10
2023-01-12T15:59:18.417Z,12.10
2023-01-12T16:01:49.499Z,12.30
2023-01-12T16:04:42.229Z,12.10
2023-01-12T16:07:10.763Z,12.20
2023-01-12T16:09:41.323Z,12.10
2023-01-12T16:12:16.015Z,12.10
2023-01-12T16:14:59.008Z,12.10
2023-01-12T16:17:29.032Z,12.10
2023-01-12T16:19:58.699Z,12.10
2023-01-12T16:22:28.217Z,12.10
2023-01-12T16:24:57.421Z,12.20
2023-01-12T16:27:27.210Z,12.10
2023-01-12T16:29:55.624Z,12.10
2023-01-12T16:32:24.810Z,12.10
2023-01-12T16:34:53.491Z,12.00
2023-01-12T16:37:27.416Z,12.00
2023-01-12T16:39:56.034Z,12.10
2023-01-12T16:42:24.233Z,12.10
2023-01-12T16:44:52.495Z,12.10
2023-01-12T16:47:21.674Z,12.10
2023-01-12T16:49:50.859Z,12.10
2023-01-12T16:52:21.963Z,12.10
2023-01-12T16:54:52.532Z,12.10
2023-01-12T16:57:20.838Z,12.10
2023-01-12T16:59:51.347Z,12.10
2023-01-12T17:02:19.985Z,12.10
2023-01-12T17:04:52.079Z,12.00
2023-01-12T17:07:21.138Z,12.10
2023-01-12T17:09:49.452Z,12.10
2023-01-12T17:12:19.337Z,12.10
2023-01-12T17:14:47.749Z,12.10
2023-01-12T17:17:16.393Z,12.10
2023-01-12T17:19:45.289Z,12.10
2023-01-12T17:22:14.494Z,12.10
2023-01-12T17:24:43.353Z,12.10
2023-01-12T17:27:12.166Z,12.10
2023-01-12T17:29:42.080Z,12.10
2023-01-12T17:32:11.288Z,12.20
2023-01-12T17:34:43.264Z,12.20
2023-01-12T17:37:12.429Z,12.10
2023-01-12T17:39:43.208Z,12.20
2023-01-12T17:53:18.199Z,12.10
2023-01-12T17:55:48.737Z,12.10
2023-01-12T17:58:18.934Z,12.10
2023-01-12T18:00:47.194Z,12.10
2023-01-12T18:03:15.630Z,12.00
2023-01-12T18:05:47.093Z,12.10
2023-01-12T18:08:21.591Z,12.10
2023-01-12T18:10:49.846Z,12.20
2023-01-12T18:13:20.758Z,12.20
2023-01-12T18:15:49.486Z,12.30
2023-01-12T18:18:21.657Z,12.00
2023-01-12T18:20:52.371Z,12.10
2023-01-12T18:23:22.145Z,12.10
2023-01-12T18:25:52.295Z,12.10
2023-01-12T18:28:29.399Z,12.20
2023-01-12T18:31:04.927Z,11.90
2023-01-12T18:33:35.648Z,12.10
2023-01-12T18:36:10.776Z,12.10
2023-01-12T18:38:50.346Z,12.10
2023-01-12T18:41:40.772Z,12.10
2023-01-12T18:44:21.899Z,12.10
2023-01-12T18:47:15.706Z,12.10
2023-01-12T18:50:04.316Z,12.30
2023-01-12T18:52:54.424Z,12.10
2023-01-12T18:55:26.785Z,12.20
2023-01-12T18:57:57.533Z,12.10
2023-01-12T19:00:34.375Z,12.10
2023-01-12T19:03:04.769Z,12.10
2023-01-12T19:05:44.413Z,12.10
2023-01-12T19:08:41.732Z,12.00
2023-01-12T19:11:25.165Z,12.10
2023-01-12T19:14:13.162Z,12.20
2023-01-12T19:16:59.397Z,12.10
2023-01-12T19:19:29.578Z,12.10
2023-01-12T19:22:15.237Z,12.20
2023-01-12T19:25:01.075Z,12.10
2023-01-12T19:27:48.361Z,12.10
2023-01-12T19:30:18.364Z,12.00
2023-01-12T19:32:47.965Z,12.10
2023-01-12T19:36:05.930Z,12.00
2023-01-12T19:49:40.178Z,12.10
2023-01-12T19:52:10.142Z,11.90
2023-01-12T19:54:44.280Z,11.90
2023-01-12T19:57:27.145Z,11.90
2023-01-12T20:00:32.549Z,11.80
2023-01-12T20:06:37.742Z,12.00
2023-01-12T20:09:05.718Z,11.80
2023-01-12T20:11:33.969Z,11.80
2023-01-12T20:14:02.728Z,11.70
2023-01-12T20:16:33.896Z,11.70
2023-01-12T20:19:04.402Z,11.60
2023-01-12T20:21:32.786Z,11.60
2023-01-12T20:24:04.706Z,11.60
2023-01-12T20:26:33.643Z,11.60
2023-01-12T20:29:01.653Z,11.70
2023-01-12T20:31:33.201Z,11.90
2023-01-12T20:34:01.661Z,11.70
2023-01-12T20:36:29.924Z,11.70
2023-01-12T20:38:59.067Z,11.80
2023-01-12T20:41:28.551Z,11.60
2023-01-12T20:43:56.677Z,11.70
2023-01-12T20:46:25.171Z,11.60
2023-01-12T20:48:53.393Z,11.60
2023-01-12T20:51:21.585Z,11.60
2023-01-12T20:53:50.715Z,11.60
2023-01-12T20:56:20.829Z,11.60
2023-01-12T20:58:50.293Z,11.60
2023-01-12T21:01:22.374Z,11.60
2023-01-12T21:03:53.429Z,11.60
2023-01-12T21:06:21.490Z,11.60
2023-01-12T21:08:49.830Z,11.60
2023-01-12T21:11:19.957Z,11.60
2023-01-12T21:13:49.600Z,11.60
2023-01-12T21:16:20.041Z,11.60
2023-01-12T21:18:50.276Z,11.50
2023-01-12T21:21:18.446Z,11.50
2023-01-12T21:23:46.462Z,11.50
2023-01-12T21:26:14.697Z,11.50
2023-01-12T21:28:42.982Z,11.40
2023-01-12T21:31:13.650Z,11.40
2023-01-12T21:33:41.787Z,11.60
2023-01-12T21:36:18.294Z,11.40
2023-01-12T21:38:50.836Z,11.30
2023-01-12T21:41:21.247Z,11.30
2023-01-12T21:43:49.300Z,11.20
2023-01-12T21:46:19.574Z,11.20
2023-01-12T21:48:47.872Z,11.20
2023-01-12T21:51:18.070Z,11.20
2023-01-12T21:53:46.072Z,11.20
2023-01-12T21:56:14.608Z,11.20
2023-01-12T21:58:42.667Z,11.10
2023-01-12T22:01:12.595Z,11.10
2023-01-12T22:03:42.853Z,11.10
2023-01-12T22:06:12.554Z,11.00
2023-01-12T22:08:42.236Z,11.00
2023-01-12T22:11:12.124Z,11.00
2023-01-12T22:13:40.962Z,10.90
2023-01-12T22:16:10.929Z,10.90
2023-01-12T22:18:46.434Z,10.90
2023-01-12T22:21:14.814Z,10.90
2023-01-12T22:23:43.500Z,10.90
2023-01-12T22:26:13.965Z,10.70
2023-01-12T22:28:43.690Z,11.00
2023-01-12T22:31:13.650Z,10.80
2023-01-12T22:33:45.454Z,10.80
2023-01-12T22:36:16.272Z,10.60
2023-01-12T22:38:44.284Z,10.80
2023-01-12T22:41:13.712Z,10.90
2023-01-12T22:43:41.750Z,10.80
2023-01-12T22:46:17.214Z,10.70
2023-01-12T22:48:49.446Z,10.70
2023-01-12T22:51:17.847Z,10.60
2023-01-12T22:53:46.024Z,10.70
2023-01-12T22:56:15.304Z,10.70
2023-01-12T22:58:47.259Z,10.60
2023-01-12T23:01:16.562Z,10.60
2023-01-12T23:03:47.717Z,10.60
2023-01-12T23:06:17.696Z,10.70
2023-01-12T23:08:46.336Z,10.50
2023-01-12T23:11:16.309Z,10.40
2023-01-12T23:13:45.865Z,10.40
2023-01-12T23:16:16.705Z,10.30
2023-01-12T23:18:48.099Z,10.30
2023-01-12T23:21:18.342Z,10.30
2023-01-12T23:23:47.671Z,10.20
2023-01-12T23:26:19.836Z,10.10
2023-01-12T23:28:50.546Z,10.00
2023-01-12T23:31:22.211Z,10.10
2023-01-12T23:33:55.045Z,10.10
2023-01-12T23:36:26.078Z,10.10
2023-01-12T23:38:54.889Z,10.00
2023-01-12T23:41:25.307Z,10.00
2023-01-12T23:43:56.289Z,10.10
2023-01-12T23:46:27.300Z,10.00
2023-01-12T23:48:58.804Z,10.00
2023-01-12T23:51:28.742Z,9.90
2023-01-12T23:53:59.326Z,10.00
2023-01-12T23:56:28.909Z,9.90
2023-01-12T23:58:57.416Z,9.80
